NCAR-RAP Real-Time Weather Data

Output produced by METARs form (26 May 2022  07:07 UTC)
found at http://weather.rap.ucar.edu/surface/
 
WIII 260700Z 06008KT 9000 SCT020 29/25 Q1009 NOSIG
WIII 260630Z 06008KT 8000 BKN020 29/26 Q1009 RERA NOSIG
WIII 260600Z 06009KT 7000 -RA BKN020 29/25 Q1010 NOSIG
WIII 260530Z 06007KT 7000 -RA BKN020 28/24 Q1010 NOSIG
WIII 260500Z 06007KT 9999 SCT020 29/25 Q1010 NOSIG
WIII 260430Z 04006KT 9999 FEW020 30/24 Q1011 NOSIG
WIII 260400Z 02007KT 9999 FEW020 30/24 Q1011 NOSIG
WIII 260330Z VRB03KT 9999 FEW020 30/25 Q1011 NOSIG
WIII 260300Z VRB03KT 9000 FEW020 29/26 Q1011 NOSIG
WIII 260230Z VRB03KT 9000 SCT020 28/25 Q1011 NOSIG
WIII 260200Z VRB03KT 8000 SCT020 27/26 Q1011 NOSIG
WIII 260130Z VRB04KT 8000 SCT020 27/25 Q1011 NOSIG
WIII 260100Z VRB04KT 8000 FEW020 26/25 Q1011 NOSIG
WIII 260030Z 17005KT 7000 FEW020 26/25 Q1011 NOSIG
WIII 260000Z VRB03KT 7000 FEW020 25/24 Q1010 RERA NOSIG
WIII 252330Z VRB05KT 5000 -RA FEW020 25/24 Q1010 BECMG AT0030 NSW
WIII 252300Z 18005KT 5000 -RA SCT020 25/24 Q1010 BECMG AT2330 NSW
WIII 252230Z VRB03KT 7000 SCT020 25/24 Q1010 NOSIG
WIII 252200Z 21005KT 7000 SCT020 25/24 Q1010 NOSIG
WIII 252130Z 22008KT 6000 VCTS FEW018CB SCT020 25/24 Q1010 NOSIG RMK CB TO NE
WIII 252100Z 24007KT 5000 VCTS FEW018CB SCT020 25/24 Q1009 NOSIG RMK CB TO N
WIII 252030Z 25005KT 5000 BR FEW020 25/24 Q1010 NOSIG
WIII 252000Z 25007KT 5000 BR SCT018 25/24 Q1010 NOSIG
WIII 251930Z 24007KT 5000 BR SCT020 25/24 Q1010 NOSIG